createdAt,value
2019-05-14T00:02:04.414Z,13.40
2019-05-14T00:04:32.915Z,13.40
2019-05-14T00:07:01.133Z,13.40
2019-05-14T00:09:32.174Z,13.30
2019-05-14T00:12:02.776Z,13.30
2019-05-14T00:14:39.555Z,13.30
2019-05-14T00:17:03.124Z,13.30
2019-05-14T00:19:31.824Z,13.20
2019-05-14T00:21:59.339Z,13.20
2019-05-14T00:24:26.289Z,13.20
2019-05-14T00:26:53.381Z,13.20
2019-05-14T00:29:24.287Z,13.20
2019-05-14T00:31:55.215Z,13.10
2019-05-14T00:34:23.319Z,13.10
2019-05-14T00:36:52.427Z,13.10
2019-05-14T00:39:22.427Z,13.10
2019-05-14T00:41:51.217Z,13.00
2019-05-14T00:44:26.155Z,13.00
2019-05-14T00:46:58.892Z,13.00
2019-05-14T00:49:26.002Z,13.00
2019-05-14T00:51:55.043Z,12.90
2019-05-14T00:54:24.242Z,12.90
2019-05-14T00:56:52.632Z,12.90
2019-05-14T00:59:27.730Z,12.90
2019-05-14T01:01:57.715Z,12.90
2019-05-14T01:04:25.343Z,12.90
2019-05-14T01:06:52.249Z,12.80
2019-05-14T01:09:18.982Z,12.80
2019-05-14T01:11:45.994Z,12.80
2019-05-14T01:14:12.973Z,12.80
2019-05-14T01:16:42.249Z,12.80
2019-05-14T01:19:12.384Z,12.70
2019-05-14T01:21:41.718Z,12.70
2019-05-14T01:24:09.222Z,12.70
2019-05-14T01:26:37.799Z,12.70
2019-05-14T01:29:08.507Z,12.70
2019-05-14T01:31:45.604Z,12.60
2019-05-14T01:34:16.668Z,12.60
2019-05-14T01:36:44.666Z,12.60
2019-05-14T01:39:15.480Z,12.60
2019-05-14T01:41:43.880Z,12.50
2019-05-14T01:44:16.748Z,12.50
2019-05-14T01:46:43.730Z,12.50
2019-05-14T01:49:12.034Z,12.50
2019-05-14T01:51:45.566Z,12.50
2019-05-14T01:54:13.754Z,12.50
2019-05-14T01:56:42.428Z,12.40
2019-05-14T01:59:18.682Z,12.40
2019-05-14T02:01:46.364Z,12.40
2019-05-14T02:04:14.213Z,12.40
2019-05-14T02:06:41.729Z,12.30
2019-05-14T02:09:11.108Z,12.30
2019-05-14T02:11:38.327Z,12.30
2019-05-14T02:14:05.703Z,12.30
2019-05-14T02:16:33.117Z,12.30
2019-05-14T02:19:01.853Z,12.20
2019-05-14T02:21:31.679Z,12.20
2019-05-14T02:24:11.342Z,12.20
2019-05-14T02:26:39.251Z,12.20
2019-05-14T02:29:09.535Z,12.20
2019-05-14T02:31:39.334Z,12.20
2019-05-14T02:34:09.911Z,12.10
2019-05-14T02:36:41.055Z,12.10
2019-05-14T02:39:10.227Z,12.10
2019-05-14T02:41:39.097Z,12.10
2019-05-14T02:44:10.153Z,12.10
2019-05-14T02:46:50.243Z,12.00
2019-05-14T02:49:19.270Z,12.00
2019-05-14T02:51:45.603Z,12.00
2019-05-14T02:54:12.801Z,12.00
2019-05-14T02:56:40.511Z,12.00
2019-05-14T02:59:09.694Z,11.90
2019-05-14T03:01:40.614Z,11.90
2019-05-14T03:04:09.059Z,11.90
2019-05-14T03:06:39.429Z,11.90
2019-05-14T03:09:09.693Z,11.90
2019-05-14T03:11:40.433Z,11.80
2019-05-14T03:14:10.353Z,11.80
2019-05-14T03:16:40.355Z,11.80
2019-05-14T03:19:11.877Z,11.80
2019-05-14T03:21:40.303Z,11.80
2019-05-14T03:24:28.894Z,11.70
2019-05-14T03:26:58.714Z,11.70
2019-05-14T03:29:26.357Z,11.70
2019-05-14T03:32:02.811Z,11.70
2019-05-14T03:34:41.158Z,11.70
2019-05-14T03:37:14.221Z,11.60
2019-05-14T03:39:51.294Z,11.60
2019-05-14T03:42:19.695Z,11.60
2019-05-14T03:44:49.029Z,11.60
2019-05-14T03:47:19.340Z,11.60
2019-05-14T03:49:52.364Z,11.50
2019-05-14T03:52:24.319Z,11.50
2019-05-14T03:55:01.151Z,11.50
2019-05-14T03:57:40.539Z,11.50
2019-05-14T04:00:13.813Z,11.50
2019-05-14T04:02:40.908Z,11.40
2019-05-14T04:05:11.831Z,11.40
2019-05-14T04:07:54.123Z,11.40
2019-05-14T04:10:49.126Z,11.40
2019-05-14T04:13:19.835Z,11.40
2019-05-14T04:15:49.724Z,11.30
2019-05-14T04:18:22.625Z,11.30
2019-05-14T04:20:51.932Z,11.30
2019-05-14T04:23:21.512Z,11.30
2019-05-14T04:25:49.833Z,11.30
2019-05-14T04:28:19.418Z,11.20
2019-05-14T04:30:49.346Z,11.20
2019-05-14T04:33:18.923Z,11.20
2019-05-14T04:35:49.065Z,11.20
2019-05-14T04:38:16.348Z,11.20
2019-05-14T04:40:43.747Z,11.20
2019-05-14T04:43:10.681Z,11.10
2019-05-14T04:45:51.142Z,11.20
2019-05-14T04:48:44.203Z,11.10
2019-05-14T04:51:25.606Z,11.10
2019-05-14T04:53:52.740Z,11.10
2019-05-14T04:56:19.961Z,11.10
2019-05-14T04:58:49.606Z,11.10
2019-05-14T05:01:15.967Z,11.10
2019-05-14T05:03:44.713Z,11.00
2019-05-14T05:06:13.953Z,11.00
2019-05-14T05:08:41.656Z,11.00
2019-05-14T05:11:09.602Z,11.00
2019-05-14T05:13:41.838Z,11.00
2019-05-14T05:16:12.066Z,11.00
2019-05-14T05:18:40.032Z,11.00
2019-05-14T05:21:08.668Z,11.00
2019-05-14T05:23:35.893Z,10.90
2019-05-14T05:26:03.092Z,10.90
2019-05-14T05:28:30.278Z,11.00
2019-05-14T05:30:58.535Z,11.00
2019-05-14T05:33:29.156Z,10.90
2019-05-14T05:38:48.726Z,11.00
2019-05-14T05:41:14.483Z,10.90
2019-05-14T05:43:41.646Z,10.90
2019-05-14T05:46:08.858Z,10.90
2019-05-14T05:48:35.994Z,11.00
2019-05-14T05:51:02.969Z,11.20
2019-05-14T05:53:30.374Z,11.00
2019-05-14T05:55:59.250Z,11.00
2019-05-14T05:58:29.606Z,11.10
2019-05-14T06:00:54.807Z,11.10
2019-05-14T06:03:21.750Z,11.20
2019-05-14T06:05:49.238Z,11.30
2019-05-14T06:08:18.904Z,11.40
2019-05-14T06:10:45.648Z,11.30
2019-05-14T06:13:14.102Z,11.40
2019-05-14T06:15:48.301Z,11.40
2019-05-14T06:18:17.331Z,11.50
2019-05-14T06:20:39.089Z,11.50
2019-05-14T06:23:08.291Z,11.50
2019-05-14T06:25:35.050Z,11.60
2019-05-14T06:30:52.542Z,11.60
2019-05-14T06:33:19.797Z,11.60
2019-05-14T06:35:48.569Z,11.60
2019-05-14T06:41:05.112Z,11.70
2019-05-14T06:43:32.129Z,11.70
2019-05-14T06:45:59.902Z,11.70
2019-05-14T06:48:33.726Z,11.80
2019-05-14T06:50:58.222Z,11.80
2019-05-14T06:53:25.666Z,11.80
2019-05-14T06:56:10.646Z,11.80
2019-05-14T06:58:42.288Z,11.90
2019-05-14T07:01:09.926Z,11.90
2019-05-14T07:03:38.236Z,12.00
2019-05-14T07:06:06.039Z,12.00
2019-05-14T07:08:33.229Z,12.00
2019-05-14T07:11:00.459Z,12.10
2019-05-14T07:13:29.742Z,12.10
2019-05-14T07:15:58.348Z,12.20
2019-05-14T07:18:28.096Z,12.20
2019-05-14T07:20:55.603Z,12.20
2019-05-14T07:23:23.328Z,12.30
2019-05-14T07:25:50.529Z,12.30
2019-05-14T07:28:20.787Z,12.40
2019-05-14T07:30:48.536Z,12.40
2019-05-14T07:33:18.161Z,12.50
2019-05-14T07:35:44.509Z,12.50
2019-05-14T07:38:11.496Z,12.60
2019-05-14T07:40:39.190Z,12.60
2019-05-14T07:43:11.473Z,12.70
2019-05-14T07:45:38.705Z,12.80
2019-05-14T07:48:05.983Z,12.80
2019-05-14T07:50:34.957Z,12.80
2019-05-14T07:56:01.457Z,12.90
2019-05-14T07:58:30.344Z,13.00
2019-05-14T08:01:02.443Z,13.10
2019-05-14T08:03:43.090Z,13.10
2019-05-14T08:06:15.391Z,13.20
2019-05-14T08:08:52.602Z,13.20
2019-05-14T08:11:23.638Z,13.30
2019-05-14T08:13:51.627Z,13.40
2019-05-14T08:16:19.018Z,13.40
2019-05-14T08:18:48.804Z,13.50
2019-05-14T08:21:19.763Z,13.60
2019-05-14T08:23:48.178Z,13.60
2019-05-14T08:26:19.067Z,13.70
2019-05-14T08:28:48.865Z,13.70
2019-05-14T08:31:15.649Z,13.80
2019-05-14T08:33:43.044Z,13.90
2019-05-14T08:36:10.871Z,13.90
2019-05-14T08:38:52.991Z,14.00
2019-05-14T08:41:24.343Z,14.00
2019-05-14T08:46:49.911Z,14.20
2019-05-14T08:49:20.955Z,14.20
2019-05-14T08:51:50.528Z,14.30
2019-05-14T08:54:28.385Z,14.40
2019-05-14T08:57:09.341Z,14.40
2019-05-14T08:59:39.586Z,14.50
2019-05-14T09:02:10.503Z,14.50
2019-05-14T09:04:42.653Z,14.70
2019-05-14T09:07:09.719Z,14.70
2019-05-14T09:09:38.314Z,14.70
2019-05-14T09:12:05.371Z,14.80
2019-05-14T09:14:48.810Z,14.80
2019-05-14T09:17:20.211Z,14.90
2019-05-14T09:20:02.460Z,14.90
2019-05-14T09:22:22.182Z,15.00
2019-05-14T09:25:00.885Z,15.10
2019-05-14T09:27:31.029Z,15.10
2019-05-14T09:29:58.935Z,15.20
2019-05-14T09:32:28.935Z,15.20
2019-05-14T09:34:55.820Z,15.30
2019-05-14T09:37:22.829Z,15.30
2019-05-14T09:39:49.793Z,15.40
2019-05-14T09:42:19.567Z,15.40
2019-05-14T09:44:45.556Z,15.50
2019-05-14T09:47:12.310Z,15.50
2019-05-14T09:49:39.312Z,15.60
2019-05-14T09:52:06.252Z,15.60
2019-05-14T09:54:33.098Z,15.70
2019-05-14T09:57:01.602Z,15.70
2019-05-14T09:59:29.012Z,15.70
2019-05-14T10:02:00.084Z,15.80
2019-05-14T10:04:39.989Z,15.80
2019-05-14T10:07:08.749Z,15.90
2019-05-14T10:09:42.382Z,16.00
2019-05-14T10:12:18.196Z,16.00
2019-05-14T10:14:48.532Z,16.10
2019-05-14T10:17:19.165Z,16.10
2019-05-14T10:19:49.788Z,16.20
2019-05-14T10:22:19.895Z,16.20
2019-05-14T10:24:47.350Z,16.30
2019-05-14T10:27:14.846Z,16.30
2019-05-14T10:29:42.000Z,16.40
2019-05-14T10:32:09.253Z,16.40
2019-05-14T10:34:36.405Z,16.40
2019-05-14T10:37:03.203Z,16.50
2019-05-14T10:42:25.766Z,16.60
2019-05-14T10:45:12.745Z,16.60
2019-05-14T10:47:42.097Z,16.70
2019-05-14T10:50:13.858Z,16.70
2019-05-14T10:52:39.648Z,16.80
2019-05-14T10:55:08.008Z,16.80
2019-05-14T10:57:46.631Z,16.80
2019-05-14T11:00:20.949Z,16.90
2019-05-14T11:02:51.187Z,16.90
2019-05-14T11:05:19.239Z,17.00
2019-05-14T11:07:51.947Z,17.00
2019-05-14T11:10:20.597Z,17.10
2019-05-14T11:12:55.010Z,17.10
2019-05-14T11:15:20.709Z,17.10
2019-05-14T11:17:48.844Z,17.20
2019-05-14T11:20:15.854Z,17.20
2019-05-14T11:22:49.226Z,17.20
2019-05-14T11:25:28.660Z,17.30
2019-05-14T11:28:02.018Z,17.30
2019-05-14T11:30:43.981Z,17.30
2019-05-14T11:33:13.337Z,17.40
2019-05-14T11:35:42.693Z,17.40
2019-05-14T11:38:28.023Z,17.40
2019-05-14T11:40:41.341Z,17.70
2019-05-14T11:43:08.648Z,17.50
2019-05-14T11:45:39.027Z,17.50
2019-05-14T11:48:08.902Z,17.50
2019-05-14T11:50:36.374Z,17.50
2019-05-14T11:53:03.666Z,17.60
2019-05-14T11:55:31.310Z,17.60
2019-05-14T11:58:03.576Z,17.60
2019-05-14T12:00:31.256Z,17.60
2019-05-14T12:03:20.000Z,17.70
2019-05-14T12:05:49.392Z,17.70
2019-05-14T12:08:18.573Z,17.80
2019-05-14T12:10:46.077Z,17.80
2019-05-14T12:13:12.954Z,17.80
2019-05-14T12:15:40.110Z,17.80
2019-05-14T12:18:10.353Z,17.90
2019-05-14T12:20:39.630Z,17.90
2019-05-14T12:23:08.855Z,17.90
2019-05-14T12:25:35.891Z,17.90
2019-05-14T12:28:13.699Z,18.00
2019-05-14T12:30:39.516Z,18.00
2019-05-14T12:33:06.989Z,18.00
2019-05-14T12:35:34.665Z,18.00
2019-05-14T12:38:02.312Z,18.10
2019-05-14T12:40:29.393Z,18.10
2019-05-14T12:42:58.709Z,18.10
2019-05-14T12:45:25.165Z,18.10
2019-05-14T12:48:05.285Z,18.10
2019-05-14T12:50:34.759Z,18.20
2019-05-14T12:53:01.847Z,18.20
2019-05-14T12:55:28.907Z,18.20
2019-05-14T12:57:59.452Z,18.20
2019-05-14T13:00:25.132Z,18.30
2019-05-14T13:03:01.729Z,18.30
2019-05-14T13:05:33.173Z,18.30
2019-05-14T13:08:02.014Z,18.30
2019-05-14T13:10:35.214Z,18.40
2019-05-14T13:13:08.731Z,18.40
2019-05-14T13:15:39.266Z,18.40
2019-05-14T13:18:08.996Z,18.40
2019-05-14T13:20:38.678Z,18.40
2019-05-14T13:23:05.002Z,18.40
2019-05-14T13:25:39.022Z,18.50
2019-05-14T13:28:08.812Z,18.50
2019-05-14T13:30:37.347Z,18.50
2019-05-14T13:33:04.921Z,18.50
2019-05-14T13:35:33.409Z,18.50
2019-05-14T13:38:02.676Z,18.50
2019-05-14T13:43:20.385Z,18.60
2019-05-14T13:45:49.539Z,18.50
2019-05-14T13:48:18.815Z,18.60
2019-05-14T13:50:48.786Z,18.60
2019-05-14T13:53:14.876Z,18.60
2019-05-14T13:55:46.422Z,18.60
2019-05-14T13:58:10.638Z,18.60
2019-05-14T14:00:37.563Z,18.60
2019-05-14T14:03:04.648Z,18.70
2019-05-14T14:05:31.668Z,18.70
2019-05-14T14:07:59.004Z,18.70
2019-05-14T14:10:31.455Z,18.70
2019-05-14T14:12:59.590Z,18.70
2019-05-14T14:15:26.116Z,18.70
2019-05-14T14:17:53.955Z,18.70
2019-05-14T14:20:20.937Z,18.70
2019-05-14T14:22:53.534Z,18.80
2019-05-14T14:25:21.102Z,18.80
2019-05-14T14:27:49.771Z,18.80
2019-05-14T14:30:19.507Z,18.80
2019-05-14T14:32:45.947Z,18.80
2019-05-14T14:35:13.272Z,18.80
2019-05-14T14:40:35.305Z,18.80
2019-05-14T14:43:02.738Z,18.80
2019-05-14T14:45:30.077Z,18.80
2019-05-14T14:48:04.054Z,18.80
2019-05-14T14:50:45.587Z,18.80
2019-05-14T14:53:20.098Z,18.80
2019-05-14T14:55:49.941Z,18.80
2019-05-14T14:58:20.019Z,19.10
2019-05-14T15:03:44.286Z,18.90
2019-05-14T15:06:11.959Z,18.90
2019-05-14T15:08:39.229Z,18.90
2019-05-14T15:11:08.609Z,18.90
2019-05-14T15:13:38.578Z,18.90
2019-05-14T15:16:07.491Z,18.90
2019-05-14T15:18:34.522Z,18.90
2019-05-14T15:21:01.325Z,18.90
2019-05-14T15:23:28.821Z,19.00
2019-05-14T15:25:58.377Z,18.90
2019-05-14T15:28:25.943Z,19.00
2019-05-14T15:30:54.596Z,19.00
2019-05-14T15:33:22.964Z,19.00
2019-05-14T15:35:50.176Z,19.00
2019-05-14T15:38:17.220Z,19.00
2019-05-14T15:40:44.635Z,19.00
2019-05-14T15:43:11.610Z,19.00
2019-05-14T15:45:38.715Z,19.10
2019-05-14T15:48:08.712Z,19.10
2019-05-14T15:50:38.609Z,19.10
2019-05-14T15:53:04.346Z,19.10
2019-05-14T15:55:31.538Z,19.10
2019-05-14T15:57:59.103Z,19.10
2019-05-14T16:00:29.129Z,19.10
2019-05-14T16:02:55.491Z,19.20
2019-05-14T16:05:22.444Z,19.20
2019-05-14T16:07:49.584Z,19.20
2019-05-14T16:10:21.426Z,19.20
2019-05-14T16:12:49.376Z,19.20
2019-05-14T16:15:15.553Z,19.30
2019-05-14T16:17:49.853Z,19.30
2019-05-14T16:20:12.289Z,19.30
2019-05-14T16:22:40.247Z,19.30
2019-05-14T16:27:59.502Z,19.40
2019-05-14T16:30:28.885Z,19.40
2019-05-14T16:32:56.266Z,19.40
2019-05-14T16:35:23.429Z,19.40
2019-05-14T16:37:50.731Z,19.40
2019-05-14T16:40:19.314Z,19.40
2019-05-14T16:42:48.478Z,19.40
2019-05-14T16:45:18.597Z,19.50
2019-05-14T16:47:46.379Z,19.50
2019-05-14T16:50:13.552Z,19.50
2019-05-14T16:52:42.144Z,19.50
2019-05-14T16:55:22.998Z,19.50
2019-05-14T16:57:42.482Z,19.50
2019-05-14T17:00:23.720Z,19.50
2019-05-14T17:02:58.999Z,19.50
2019-05-14T17:05:29.951Z,19.40
2019-05-14T17:07:58.756Z,19.40
2019-05-14T17:10:31.669Z,19.30
2019-05-14T17:13:02.091Z,19.30
2019-05-14T17:15:30.525Z,19.20
2019-05-14T17:17:59.654Z,19.10
2019-05-14T17:20:49.132Z,19.10
2019-05-14T17:23:20.868Z,19.00
2019-05-14T17:26:05.632Z,19.00
2019-05-14T17:28:37.602Z,18.90
2019-05-14T17:31:05.475Z,18.90
2019-05-14T17:33:32.615Z,18.80
2019-05-14T17:35:59.827Z,18.80
2019-05-14T17:38:33.805Z,18.70
2019-05-14T17:41:09.500Z,18.70
2019-05-14T17:43:45.959Z,18.70
2019-05-14T17:46:13.654Z,18.70
2019-05-14T17:48:41.538Z,18.60
2019-05-14T17:51:13.310Z,18.60
2019-05-14T17:53:41.295Z,18.60
2019-05-14T17:56:08.735Z,18.60
2019-05-14T17:58:38.448Z,18.60
2019-05-14T18:01:05.844Z,18.60
2019-05-14T18:03:33.504Z,18.60
2019-05-14T18:08:53.666Z,18.60
2019-05-14T18:11:23.499Z,18.60
2019-05-14T18:13:50.750Z,18.60
2019-05-14T18:16:19.150Z,18.60
2019-05-14T18:18:49.477Z,18.60
2019-05-14T18:21:16.151Z,18.50
2019-05-14T18:23:43.083Z,18.50
2019-05-14T18:26:11.122Z,18.50
2019-05-14T18:28:39.251Z,18.50
2019-05-14T18:31:06.194Z,18.50
2019-05-14T18:33:33.860Z,18.40
2019-05-14T18:36:04.443Z,18.40
2019-05-14T18:38:32.730Z,18.40
2019-05-14T18:41:00.314Z,18.40
2019-05-14T18:43:31.179Z,18.40
2019-05-14T18:46:01.174Z,18.40
2019-05-14T18:48:29.125Z,18.30
2019-05-14T18:51:00.260Z,18.30
2019-05-14T18:53:29.817Z,18.20
2019-05-14T18:55:59.492Z,18.20
2019-05-14T18:58:26.240Z,18.20
2019-05-14T19:00:54.208Z,18.20
2019-05-14T19:03:21.488Z,18.10
2019-05-14T19:05:49.497Z,18.10
2019-05-14T19:08:23.446Z,18.10
2019-05-14T19:10:52.409Z,18.10
2019-05-14T19:13:20.199Z,18.00
2019-05-14T19:18:38.539Z,17.90
2019-05-14T19:21:08.861Z,17.90
2019-05-14T19:23:38.445Z,17.90
2019-05-14T19:26:09.805Z,17.80
2019-05-14T19:28:38.982Z,17.80
2019-05-14T19:31:09.172Z,17.80
2019-05-14T19:33:37.985Z,17.70
2019-05-14T19:36:08.608Z,17.70
2019-05-14T19:38:35.785Z,17.70
2019-05-14T19:41:03.208Z,17.60
2019-05-14T19:43:30.599Z,17.60
2019-05-14T19:45:59.022Z,17.50
2019-05-14T19:48:29.846Z,17.50
2019-05-14T19:50:55.567Z,17.50
2019-05-14T19:53:24.040Z,17.40
2019-05-14T19:58:43.272Z,17.40
2019-05-14T20:01:12.006Z,17.30
2019-05-14T20:03:39.241Z,17.30
2019-05-14T20:06:08.809Z,17.20
2019-05-14T20:08:35.258Z,17.20
2019-05-14T20:11:08.114Z,17.20
2019-05-14T20:13:31.161Z,17.10
2019-05-14T20:15:59.033Z,17.10
2019-05-14T20:18:58.828Z,17.10
2019-05-14T20:21:33.572Z,17.00
2019-05-14T20:24:01.560Z,16.90
2019-05-14T20:26:30.175Z,16.90
2019-05-14T20:28:59.118Z,16.90
2019-05-14T20:31:29.720Z,16.80
2019-05-14T20:33:59.038Z,16.80
2019-05-14T20:36:28.073Z,16.80
2019-05-14T20:38:54.987Z,16.80
2019-05-14T20:47:03.781Z,16.60
2019-05-14T20:49:32.546Z,16.60
2019-05-14T20:52:00.000Z,16.60
2019-05-14T20:54:28.969Z,16.50
2019-05-14T20:56:58.506Z,16.50
2019-05-14T20:59:25.490Z,16.40
2019-05-14T21:01:52.543Z,16.40
2019-05-14T21:04:20.268Z,16.40
2019-05-14T21:06:48.698Z,16.30
2019-05-14T21:09:19.019Z,16.30
2019-05-14T21:11:49.049Z,16.30
2019-05-14T21:14:18.264Z,16.30
2019-05-14T21:16:45.569Z,16.30
2019-05-14T21:19:13.577Z,16.20
2019-05-14T21:21:41.338Z,16.10
2019-05-14T21:24:10.087Z,16.10
2019-05-14T21:26:39.877Z,16.10
2019-05-14T21:29:08.131Z,16.00
2019-05-14T21:31:38.345Z,16.00
2019-05-14T21:34:08.005Z,16.00
2019-05-14T21:36:34.858Z,16.00
2019-05-14T21:39:03.252Z,15.90
2019-05-14T21:41:31.827Z,15.90
2019-05-14T21:44:01.326Z,15.80
2019-05-14T21:46:31.773Z,15.80
2019-05-14T21:48:59.945Z,15.80
2019-05-14T21:51:28.326Z,15.80
2019-05-14T21:53:58.839Z,15.70
2019-05-14T21:56:29.006Z,15.70
2019-05-14T21:58:55.586Z,15.70
2019-05-14T22:01:25.086Z,15.60
2019-05-14T22:03:53.287Z,15.60
2019-05-14T22:06:21.280Z,15.60
2019-05-14T22:08:48.978Z,15.60
2019-05-14T22:11:18.657Z,15.50
2019-05-14T22:13:45.406Z,15.50
2019-05-14T22:16:12.538Z,15.50
2019-05-14T22:18:39.757Z,15.40
2019-05-14T22:21:08.843Z,15.40
2019-05-14T22:23:38.799Z,15.40
2019-05-14T22:26:05.834Z,15.40
2019-05-14T22:28:33.903Z,15.30
2019-05-14T22:31:01.315Z,15.30
2019-05-14T22:33:28.518Z,15.30
2019-05-14T22:35:57.928Z,15.20
2019-05-14T22:38:29.160Z,15.20
2019-05-14T22:40:59.048Z,15.20
2019-05-14T22:43:28.970Z,15.10
2019-05-14T22:45:59.063Z,15.10
2019-05-14T22:48:29.938Z,15.10
2019-05-14T22:50:59.232Z,15.00
2019-05-14T22:53:30.359Z,15.00
2019-05-14T22:56:00.737Z,15.00
2019-05-14T22:58:28.861Z,14.90
2019-05-14T23:01:12.882Z,14.90
2019-05-14T23:03:28.960Z,14.90
2019-05-14T23:05:55.068Z,14.90
2019-05-14T23:08:22.065Z,14.80
2019-05-14T23:10:50.285Z,14.80
2019-05-14T23:13:18.607Z,14.80
2019-05-14T23:15:48.137Z,14.80
2019-05-14T23:18:14.897Z,14.70
2019-05-14T23:20:43.093Z,14.70
2019-05-14T23:23:11.298Z,14.70
2019-05-14T23:25:39.067Z,14.60
2019-05-14T23:28:08.335Z,14.60
2019-05-14T23:30:34.999Z,14.60
2019-05-14T23:33:02.518Z,14.60
2019-05-14T23:35:30.644Z,14.50
2019-05-14T23:37:58.716Z,14.50
2019-05-14T23:40:28.748Z,14.50
2019-05-14T23:42:58.607Z,14.40
2019-05-14T23:45:25.238Z,14.40
2019-05-14T23:47:53.198Z,14.40
2019-05-14T23:50:21.373Z,14.40
2019-05-14T23:52:49.504Z,14.30
2019-05-14T23:55:18.059Z,14.30
2019-05-14T23:57:48.136Z,14.30
